Time;durP1;ratioP1;P1;durP2;ratioP2;P2;SDS_P1;SDS_P2;PMS_P1;PMS_P2;Temp;Humidity;BMP_temperature;BMP_pressure;BME280_temperature;BME280_humidity;BME280_pressure;Samples;Min_cycle;Max_cycle;Signal;HPM_P1;HPM_P2
2022/05/21 00:01:35;;;;;;;11.52;8.82;;;;;;;-148.88;92.56;75949.88;5053693;28;20029;-74
2022/05/21 00:04:00;;;;;;;11.80;8.55;;;;;;;-148.88;92.98;75955.97;5053561;28;20474;-74
2022/05/21 00:06:25;;;;;;;11.02;9.13;;;;;;;-148.88;92.71;75949.88;5053579;28;20109;-74
2022/05/21 00:08:51;;;;;;;11.98;8.50;;;;;;;-148.88;93.09;75958.00;5053539;28;20032;-74
2022/05/21 00:11:16;;;;;;;14.18;8.77;;;;;;;-148.88;93.60;75968.16;5053492;28;20096;-74
2022/05/21 00:13:42;;;;;;;11.57;8.57;;;;;;;-148.88;93.75;75978.31;5053494;28;20393;-74
2022/05/21 00:16:07;;;;;;;12.73;9.43;;;;;;;-148.88;94.32;75984.41;5053493;28;20096;-74
2022/05/21 00:18:34;;;;;;;12.02;8.35;;;;;;;-148.88;93.53;75986.44;5053303;28;20039;-74
2022/05/21 00:20:59;;;;;;;13.63;8.55;;;;;;;-148.88;93.21;75972.22;5035535;28;20237;-74
2022/05/21 00:23:30;;;;;;;10.85;7.70;;;;;;;-148.88;92.08;75972.22;5053578;28;20438;-74
2022/05/21 00:26:08;;;;;;;12.10;7.35;;;;;;;-148.88;92.46;75984.41;5053564;28;20082;-74
2022/05/21 00:28:36;;;;;;;10.68;7.53;;;;;;;-148.88;92.32;75984.41;5053330;28;20036;-74
2022/05/21 00:31:03;;;;;;;11.65;7.97;;;;;;;-148.88;92.66;75996.59;5053553;28;20025;-74
2022/05/21 00:33:29;;;;;;;13.88;7.88;;;;;;;-148.88;92.71;75980.34;5053240;28;20025;-74
2022/05/21 00:35:55;;;;;;;11.90;7.65;;;;;;;-148.88;91.86;75978.31;5053194;28;20393;-74
2022/05/21 00:38:21;;;;;;;8.82;7.00;;;;;;;-148.88;91.48;75992.53;5053035;28;20033;-74
2022/05/21 00:40:47;;;;;;;12.38;6.55;;;;;;;-148.88;91.73;75996.59;5035220;28;20016;-74
2022/05/21 00:43:44;;;;;;;12.23;6.70;;;;;;;-148.88;91.50;75996.59;5053010;28;20035;-74
2022/05/21 00:46:14;;;;;;;10.50;6.43;;;;;;;-148.88;91.40;76000.66;5052607;28;20021;-74
2022/05/21 00:48:40;;;;;;;10.35;7.15;;;;;;;-148.88;91.02;75984.41;5053101;28;20025;-74
2022/05/21 00:51:11;;;;;;;12.05;6.82;;;;;;;-148.88;91.08;75992.53;5053002;28;20025;-74
2022/05/21 00:53:37;;;;;;;9.40;6.60;;;;;;;-148.88;91.14;76014.88;5053338;28;20412;-74
2022/05/21 00:56:04;;;;;;;11.27;6.32;;;;;;;-148.88;91.27;76020.97;5035054;28;20558;-74
2022/05/21 01:01:15;;;;;;;11.00;6.45;;;;;;;-148.88;90.46;76025.03;5053120;28;20028;-74
2022/05/21 01:03:42;;;;;;;9.73;5.90;;;;;;;-148.88;90.37;76025.03;5052806;28;20025;-74
2022/05/21 01:06:08;;;;;;;9.68;5.70;;;;;;;-148.88;89.97;76045.34;5053150;28;20021;-74
2022/05/21 01:08:33;;;;;;;12.60;6.30;;;;;;;-148.88;90.39;76057.53;5052770;28;20021;-74
2022/05/21 01:11:02;;;;;;;9.38;6.35;;;;;;;-148.88;90.14;76049.41;5052829;28;20535;-74
2022/05/21 01:13:33;;;;;;;9.82;5.72;;;;;;;-148.88;90.80;76069.72;5052824;28;20032;-74
2022/05/21 01:16:00;;;;;;;13.23;6.30;;;;;;;-148.88;91.00;76079.88;5052826;28;20021;-74
2022/05/21 01:18:25;;;;;;;10.73;6.13;;;;;;;-148.88;91.50;76085.97;5052574;28;20386;-74
2022/05/21 01:20:57;;;;;;;9.75;5.82;;;;;;;-148.88;90.73;76073.78;5052726;28;20025;-74
2022/05/21 01:23:22;;;;;;;11.18;6.32;;;;;;;-148.88;90.43;76077.84;5052641;28;20033;-74
2022/05/21 01:25:49;;;;;;;10.30;5.90;;;;;;;-148.88;90.57;76085.97;5067431;22;20113;-92
2022/05/21 01:28:25;;;;;;;7.88;5.82;;;;;;;-148.88;90.31;76081.91;5040784;28;20458;-90
2022/05/21 01:30:54;;;;;;;11.70;6.00;;;;;;;-148.88;89.88;76073.78;5059502;28;20059;-91
2022/05/21 01:33:42;;;;;;;8.95;5.82;;;;;;;-148.88;90.26;76096.13;5055336;28;20021;-91
2022/05/21 01:36:09;;;;;;;9.68;6.13;;;;;;;-148.88;89.46;76073.78;5020596;28;20036;-89
2022/05/21 01:38:49;;;;;;;10.48;6.18;;;;;;;-148.88;89.90;76079.88;5041598;28;20026;-91
2022/05/21 01:41:14;;;;;;;10.85;6.68;;;;;;;-148.88;90.70;76100.19;5039115;28;20017;-87
2022/05/21 01:46:24;;;;;;;16.00;8.00;;;;;;;-148.88;90.51;76098.16;5046201;28;20124;-90
2022/05/21 01:48:49;;;;;;;15.45;8.48;;;;;;;-148.88;90.16;76094.09;5043961;28;20026;-87
2022/05/21 01:51:38;;;;;;;12.70;7.93;;;;;;;-148.88;90.93;76098.16;5041755;28;20034;-90
2022/05/21 01:54:04;;;;;;;11.32;7.40;;;;;;;-148.88;91.04;76104.25;5043453;28;20017;-89
2022/05/21 01:56:29;;;;;;;12.35;8.05;;;;;;;-148.88;91.86;76110.34;5046484;28;20075;-89
2022/05/21 01:58:57;;;;;;;13.02;8.93;;;;;;;-148.88;91.57;76118.47;5045348;28;20033;-88
2022/05/21 02:01:36;;;;;;;16.15;10.10;;;;;;;-148.88;92.04;76110.34;5043348;28;20021;-89
2022/05/21 02:04:02;;;;;;;18.30;11.32;;;;;;;-148.88;92.15;76110.34;5025637;28;20100;-90
2022/05/21 02:06:43;;;;;;;20.10;11.98;;;;;;;-148.88;92.29;76106.28;5030988;28;20029;-87
2022/05/21 02:09:10;;;;;;;19.20;12.52;;;;;;;-148.88;92.75;76116.44;5022969;28;20027;-88
2022/05/21 02:11:49;;;;;;;20.90;13.13;;;;;;;-148.88;92.05;76108.31;5026270;28;20025;-89
2022/05/21 02:14:15;;;;;;;17.55;12.98;;;;;;;-148.88;92.77;76114.41;5047329;28;20005;-89
2022/05/21 02:16:41;;;;;;;20.95;13.15;;;;;;;-148.88;93.07;76122.56;5024523;28;20127;-90
2022/05/21 02:19:07;;;;;;;20.75;13.23;;;;;;;-148.88;92.73;76110.34;5024883;28;20505;-90
2022/05/21 02:25:31;;;;;;;19.65;13.23;;;;;;;-148.88;92.93;76128.66;5040507;28;20129;-90
2022/05/21 02:28:09;;;;;;;23.73;14.02;;;;;;;-148.88;93.12;76138.81;5039554;28;20029;-86
2022/05/21 02:30:46;;;;;;;20.77;14.77;;;;;;;-148.88;93.69;76146.94;5023820;28;20032;-90
2022/05/21 02:33:12;;;;;;;21.05;14.00;;;;;;;-148.88;93.26;76138.81;5027285;28;20021;-89
2022/05/21 02:35:43;;;;;;;22.95;15.48;;;;;;;-148.88;93.79;76151.00;5021591;28;20033;-89
2022/05/21 02:40:56;;;;;;;21.77;14.45;;;;;;;-148.88;94.43;76142.88;5042757;28;20107;-90
2022/05/21 02:43:24;;;;;;;22.40;15.85;;;;;;;-148.88;94.98;76153.03;5040683;28;20455;-90
2022/05/21 02:45:50;;;;;;;23.92;15.40;;;;;;;-148.88;95.25;76153.03;5038950;28;20025;-88
2022/05/21 02:48:43;;;;;;;24.15;15.23;;;;;;;-148.88;94.66;76128.66;5041383;28;20025;-91
2022/05/21 02:51:21;;;;;;;24.05;15.18;;;;;;;-148.88;94.73;76122.56;5040698;28;20032;-88
2022/05/21 02:53:46;;;;;;;21.63;15.95;;;;;;;-148.88;96.06;76146.94;5024622;28;20025;-90
2022/05/21 02:56:14;;;;;;;21.73;15.70;;;;;;;-148.88;96.81;76151.00;5023409;28;20025;-91
2022/05/21 02:58:40;;;;;;;27.80;17.23;;;;;;;-148.88;96.50;76142.88;5024123;28;20030;-89
2022/05/21 03:01:37;;;;;;;28.85;18.05;;;;;;;-148.88;96.63;76142.88;5019896;28;20119;-88
2022/05/21 03:04:07;;;;;;;29.08;18.58;;;;;;;-148.88;96.31;76130.69;5018513;28;20029;-86
2022/05/21 03:06:39;;;;;;;29.40;19.52;;;;;;;-148.88;96.47;76130.69;5036039;28;20025;-87
2022/05/21 03:11:48;;;;;;;28.17;19.33;;;;;;;-148.88;96.51;76130.69;5035505;28;20524;-85
2022/05/21 03:14:17;;;;;;;31.48;19.05;;;;;;;-148.88;96.78;76118.47;5035833;28;20025;-85
2022/05/21 03:16:42;;;;;;;29.13;19.08;;;;;;;-148.88;97.00;76118.47;5017960;28;20029;-89
2022/05/21 03:19:14;;;;;;;28.98;19.33;;;;;;;-148.88;96.77;76118.47;5017181;28;20112;-87
2022/05/21 03:21:52;;;;;;;27.77;18.83;;;;;;;-148.88;96.88;76118.47;5017858;28;20025;-88
2022/05/21 03:24:18;;;;;;;31.00;19.90;;;;;;;-148.88;96.88;76118.47;5016903;28;20037;-86
2022/05/21 03:27:06;;;;;;;;;;;;;;;;;;;;;
2022/05/21 03:29:59;;;;;;;30.98;20.52;;;;;;;-148.88;95.78;76088.00;5035562;28;20516;-87
2022/05/21 03:32:24;;;;;;;28.77;20.10;;;;;;;-148.88;96.22;76094.09;4981348;28;20136;-90
2022/05/21 03:34:53;;;;;;;31.40;20.25;;;;;;;-148.88;96.20;76083.94;5017150;28;20108;-88
2022/05/21 03:37:18;;;;;;;30.30;20.80;;;;;;;-148.88;96.02;76085.97;5017523;28;20374;-86
2022/05/21 03:39:53;;;;;;;30.27;20.73;;;;;;;-148.88;95.62;76077.84;5036860;28;20018;-90
2022/05/21 03:42:31;;;;;;;31.10;21.13;;;;;;;-148.88;95.57;76092.06;5017601;28;20025;-89
2022/05/21 03:44:57;;;;;;;30.00;20.35;;;;;;;-148.88;95.87;76088.00;5017477;28;20056;-86
2022/05/21 03:47:25;;;;;;;31.63;19.67;;;;;;;-148.88;95.74;76075.81;5017152;28;20037;-88
2022/05/21 03:50:07;;;;;;;31.00;20.25;;;;;;;-148.88;95.64;76077.84;5035055;28;20509;-89
2022/05/21 03:52:32;;;;;;;30.45;20.15;;;;;;;-148.88;96.37;76077.84;5018226;28;20029;-88
2022/05/21 03:54:57;;;;;;;30.77;20.73;;;;;;;-148.88;95.92;76079.88;5017511;28;20025;-89
2022/05/21 03:57:23;;;;;;;28.77;19.60;;;;;;;-148.88;95.70;76075.81;5033932;28;20386;-86
2022/05/21 03:59:48;;;;;;;30.20;20.52;;;;;;;-148.88;95.87;76073.78;5017574;28;20031;-88
2022/05/21 04:02:34;;;;;;;28.65;20.02;;;;;;;-148.88;95.35;76069.72;5034790;28;20116;-87
2022/05/21 04:05:00;;;;;;;30.45;20.25;;;;;;;-148.88;94.75;76067.69;5016620;28;20025;-86
2022/05/21 04:07:29;;;;;;;30.58;20.42;;;;;;;-148.88;94.75;76065.66;5016706;28;20030;-86
2022/05/21 04:09:54;;;;;;;27.25;18.50;;;;;;;-148.88;95.19;76067.69;5034383;28;20025;-84
2022/05/21 04:15:44;;;;;;;26.52;18.75;;;;;;;-148.88;94.12;76065.66;5034227;28;20124;-85
2022/05/21 04:18:10;;;;;;;26.23;18.17;;;;;;;-148.88;93.72;76059.56;5017421;28;20028;-87
2022/05/21 04:20:53;;;;;;;24.85;18.05;;;;;;;-148.88;92.90;76041.28;5015287;28;20025;-82
2022/05/21 04:23:25;;;;;;;27.17;18.63;;;;;;;-148.88;93.61;76043.31;5015474;28;20092;-84
2022/05/21 04:25:50;;;;;;;27.77;19.38;;;;;;;-148.88;92.78;76061.59;5015742;28;20072;-84
2022/05/21 04:28:16;;;;;;;28.25;18.30;;;;;;;-148.88;92.65;76053.47;5033954;28;20026;-84
2022/05/21 04:30:53;;;;;;;27.88;18.52;;;;;;;-148.88;93.13;76059.56;5015904;28;20475;-85
2022/05/21 04:33:21;;;;;;;25.98;18.20;;;;;;;-148.88;92.86;76057.53;5016893;28;20116;-85
2022/05/21 04:38:36;;;;;;;27.23;17.73;;;;;;;-148.88;92.31;76045.34;5033930;28;20044;-85
2022/05/21 04:41:02;;;;;;;27.52;18.52;;;;;;;-148.88;92.37;76047.38;5016108;28;20103;-84
2022/05/21 04:43:28;;;;;;;25.98;18.15;;;;;;;-148.88;92.53;76047.38;5033301;28;20049;-86
2022/05/21 04:45:56;;;;;;;28.75;18.55;;;;;;;-148.88;92.48;76045.34;5016463;28;20487;-84
2022/05/21 04:48:21;;;;;;;27.25;18.02;;;;;;;-148.88;92.66;76053.47;5033357;28;20502;-85
2022/05/21 04:50:47;;;;;;;29.70;19.13;;;;;;;-148.88;93.29;76057.53;5033596;28;20029;-86
2022/05/21 04:53:12;;;;;;;28.55;18.58;;;;;;;-148.88;93.67;76065.66;5016018;28;20026;-82
2022/05/21 04:55:37;;;;;;;29.52;18.48;;;;;;;-148.88;93.52;76055.50;5033352;28;20052;-83
2022/05/21 04:58:03;;;;;;;28.63;19.30;;;;;;;-148.88;94.14;76061.59;5017088;28;20048;-85
2022/05/21 05:00:29;;;;;;;30.33;18.85;;;;;;;-148.88;94.32;76057.53;5016254;28;20029;-85
2022/05/21 05:03:12;;;;;;;30.90;19.27;;;;;;;-148.88;94.10;76061.59;5033572;28;20108;-83
2022/05/21 05:05:39;;;;;;;25.15;18.48;;;;;;;-148.88;94.20;76069.72;5016268;28;20053;-84
2022/05/21 05:08:05;;;;;;;29.45;19.73;;;;;;;-148.88;94.20;76077.84;5015460;28;20104;-86
2022/05/21 05:10:37;;;;;;;29.65;19.92;;;;;;;-148.88;94.17;76063.63;5033276;28;20036;-88
2022/05/21 05:13:04;;;;;;;29.75;19.15;;;;;;;-148.88;94.60;76071.75;5034567;28;20371;-85
2022/05/21 05:15:29;;;;;;;26.10;18.77;;;;;;;-148.88;94.58;76069.72;5033173;28;20029;-84
2022/05/21 05:18:03;;;;;;;32.92;19.95;;;;;;;-148.88;94.30;76065.66;5015726;28;20017;-83
2022/05/21 05:20:28;;;;;;;34.63;20.80;;;;;;;-148.88;94.94;76059.56;5031754;28;20525;-82
2022/05/21 05:22:53;;;;;;;29.13;19.60;;;;;;;-148.88;95.09;76065.66;5033618;28;20065;-83
2022/05/21 05:25:42;;;;;;;27.90;18.77;;;;;;;-148.88;94.85;76051.44;5033170;28;20034;-85
2022/05/21 05:28:14;;;;;;;29.17;18.42;;;;;;;-148.88;94.60;76053.47;5015390;28;20025;-85
2022/05/21 05:30:42;;;;;;;26.92;18.60;;;;;;;-148.88;93.94;76039.25;5033810;28;20497;-83
2022/05/21 05:33:07;;;;;;;26.77;18.58;;;;;;;-148.88;94.36;76045.34;5019008;28;20022;-84
2022/05/21 05:35:33;;;;;;;27.88;17.95;;;;;;;-148.88;94.63;76045.34;5035830;28;20120;-84
2022/05/21 05:37:58;;;;;;;29.55;17.95;;;;;;;-148.88;94.55;76055.50;5036710;28;20382;-86
2022/05/21 05:40:24;;;;;;;26.58;16.90;;;;;;;-148.88;94.89;76053.47;5019570;28;20466;-86
2022/05/21 05:42:49;;;;;;;27.83;18.10;;;;;;;-148.88;94.43;76041.28;5038406;28;20040;-85
2022/05/21 05:45:21;;;;;;;25.25;16.48;;;;;;;-148.88;94.41;76053.47;5038859;28;20025;-85
2022/05/21 05:47:47;;;;;;;28.92;16.83;;;;;;;-148.88;94.41;76061.59;5020450;28;20036;-85
2022/05/21 05:50:12;;;;;;;32.85;17.67;;;;;;;-148.88;94.81;76057.53;5037563;28;20022;-84
2022/05/21 05:52:37;;;;;;;29.58;16.85;;;;;;;-148.88;93.92;76037.22;5036787;28;20029;-84
2022/05/21 05:55:03;;;;;;;24.52;15.55;;;;;;;-148.88;94.80;76047.38;5018826;28;20029;-84
2022/05/21 05:57:29;;;;;;;28.50;17.95;;;;;;;-148.88;95.76;76057.53;5018635;28;20032;-85
2022/05/21 05:59:55;;;;;;;29.23;17.15;;;;;;;-148.88;96.27;76065.66;5019747;28;20112;-82
2022/05/21 06:05:22;;;;;;;28.05;16.27;;;;;;;-148.88;96.45;76063.63;5036337;28;20049;-87
2022/05/21 06:08:00;;;;;;;26.88;16.70;;;;;;;-148.88;96.30;76049.41;5034969;28;20033;-84
2022/05/21 06:10:27;;;;;;;33.22;17.10;;;;;;;-148.88;96.06;76053.47;5018658;28;20025;-84
2022/05/21 06:12:57;;;;;;;26.88;16.30;;;;;;;-148.88;96.26;76041.28;5021893;28;20029;-82
2022/05/21 06:16:16;;;;;;;27.27;16.63;;;;;;;-148.88;95.64;76033.16;5018960;28;20022;-83
2022/05/21 06:18:50;;;;;;;24.77;15.43;;;;;;;-148.88;95.06;76000.66;5034023;28;20037;-84
2022/05/21 06:22:16;;;;;;;22.13;15.50;;;;;;;-148.88;94.32;76008.78;5020491;28;20124;-85
2022/05/21 06:24:59;;;;;;;25.60;16.13;;;;;;;-148.88;94.15;75998.63;5029750;28;20069;-85
2022/05/21 06:27:31;;;;;;;22.40;15.02;;;;;;;-148.88;93.38;75986.44;5020395;28;20091;-84
2022/05/21 06:30:28;;;;;;;22.73;14.40;;;;;;;-148.88;92.33;75980.34;5037562;28;20363;-84
2022/05/21 06:33:21;;;;;;;25.58;14.23;;;;;;;-148.88;92.11;75972.22;5018261;28;20033;-85
2022/05/21 06:35:51;;;;;;;23.38;14.65;;;;;;;-148.88;92.07;75972.22;5014114;28;20041;-84
2022/05/21 06:38:45;;;;;;;22.73;13.50;;;;;;;-148.88;91.78;75976.28;5040687;28;20028;-83
2022/05/21 06:41:31;;;;;;;20.58;14.05;;;;;;;-148.88;92.04;75960.03;5040923;28;20026;-85
2022/05/21 06:44:13;;;;;;;20.08;13.07;;;;;;;-148.88;91.63;75960.03;5029403;28;20025;-86
2022/05/21 06:46:57;;;;;;;23.42;14.27;;;;;;;-148.88;91.36;75972.22;5030030;28;20112;-86
2022/05/21 06:49:22;;;;;;;24.48;12.93;;;;;;;-148.88;91.06;75968.16;5043148;28;20026;-84
2022/05/21 06:54:45;;;;;;;21.83;12.90;;;;;;;-148.88;91.01;75970.19;5031233;28;20053;-86
2022/05/21 06:57:13;;;;;;;21.52;13.30;;;;;;;-148.88;91.66;75955.97;5040882;28;20032;-84
2022/05/21 06:59:45;;;;;;;22.17;12.70;;;;;;;-148.88;91.39;75945.81;5023821;28;20033;-85
2022/05/21 07:02:10;;;;;;;20.48;12.05;;;;;;;-148.88;90.21;75939.72;5023727;28;20121;-85
2022/05/21 07:07:44;;;;;;;18.23;12.15;;;;;;;-148.88;89.91;75923.47;5040132;28;20033;-84
2022/05/21 07:10:25;;;;;;;17.33;11.43;;;;;;;-148.88;89.19;75919.41;5039501;28;20029;-85
2022/05/21 07:12:53;;;;;;;18.73;11.13;;;;;;;-148.88;88.31;75903.16;5038600;28;20025;-84
2022/05/21 07:15:20;;;;;;;17.05;11.23;;;;;;;-148.88;88.90;75915.34;5020997;28;20044;-84
2022/05/21 07:18:00;;;;;;;17.85;10.95;;;;;;;-148.88;88.04;75913.31;5021402;28;20036;-85
2022/05/21 07:20:30;;;;;;;18.33;11.30;;;;;;;-148.88;88.36;75909.25;5039249;28;20104;-84
2022/05/21 07:23:11;;;;;;;21.83;11.02;;;;;;;-148.88;88.55;75897.06;5021900;28;20021;-83
2022/05/21 07:25:56;;;;;;;19.38;11.10;;;;;;;-148.88;88.95;75870.66;5020837;28;20051;-83
2022/05/21 07:28:21;;;;;;;19.17;10.45;;;;;;;-148.88;87.11;75870.66;5039357;28;20030;-81
2022/05/21 07:30:55;;;;;;;15.55;10.18;;;;;;;-148.88;87.10;75868.63;5017498;28;20028;-82
2022/05/21 07:33:21;;;;;;;15.93;10.13;;;;;;;-148.88;86.98;75872.69;5018576;28;20027;-83
2022/05/21 07:35:47;;;;;;;20.15;10.75;;;;;;;-148.88;86.97;75870.66;5034263;28;20037;-81
2022/05/21 07:38:23;;;;;;;17.77;10.90;;;;;;;-148.88;87.04;75858.47;5036860;28;20033;-83
2022/05/21 07:41:34;;;;;;;19.27;10.05;;;;;;;-148.88;86.00;75846.28;5017584;28;20482;-85
2022/05/21 07:43:44;;;;;;;15.05;9.52;;;;;;;-148.88;85.17;75852.38;5027535;28;20052;-82
2022/05/21 07:46:12;;;;;;;16.33;9.23;;;;;;;-148.88;84.92;75846.28;5035037;28;20029;-82
2022/05/21 07:48:40;;;;;;;16.08;9.35;;;;;;;-148.88;85.19;75846.28;5034037;28;20368;-84
2022/05/21 07:51:20;;;;;;;19.13;9.60;;;;;;;-148.88;85.05;75840.19;5034796;28;20029;-83
2022/05/21 07:53:46;;;;;;;17.83;9.25;;;;;;;-148.88;85.07;75838.16;5036088;28;20033;-84
2022/05/21 07:56:23;;;;;;;18.27;9.00;;;;;;;-148.88;84.91;75848.31;5019409;28;20038;-84
2022/05/21 07:59:01;;;;;;;;;;;;;;;;;;;;;
2022/05/21 08:01:40;;;;;;;17.45;9.10;;;;;;;-148.88;85.74;75854.41;5036432;28;20040;-84
2022/05/21 08:04:05;;;;;;;15.80;8.65;;;;;;;-148.88;85.05;75850.34;5020177;28;20441;-85
2022/05/21 08:06:45;;;;;;;16.25;8.68;;;;;;;-148.88;83.84;75838.16;5033197;28;20478;-83
2022/05/21 08:09:21;;;;;;;15.93;9.65;;;;;;;-148.88;84.68;75844.25;5033886;28;20413;-83
2022/05/21 08:11:47;;;;;;;16.05;8.27;;;;;;;-148.88;84.14;75834.09;5035648;28;20027;-84
2022/05/21 08:14:15;;;;;;;15.25;8.18;;;;;;;-148.88;83.83;75834.09;5034772;28;20022;-86
2022/05/21 08:16:43;;;;;;;19.23;8.23;;;;;;;-148.88;83.84;75832.06;5035669;28;20029;-81
2022/05/21 08:19:33;;;;;;;13.48;7.95;;;;;;;-148.88;83.63;75815.81;5035320;28;20088;-82
2022/05/21 08:27:43;;;;;;;13.45;7.85;;;;;;;-148.88;81.82;75793.47;5035288;28;20036;-83
2022/05/21 08:30:38;;;;;;;14.63;8.05;;;;;;;-148.88;81.56;75752.84;5033691;28;20048;-83
2022/05/21 08:33:08;;;;;;;14.20;7.78;;;;;;;-148.88;81.42;75724.41;5032065;28;20073;-84
2022/05/21 08:35:40;;;;;;;12.88;6.50;;;;;;;-148.88;79.65;75704.09;5034659;28;20470;-85
2022/05/21 08:38:16;;;;;;;12.85;6.57;;;;;;;-148.88;76.44;75710.19;5034780;28;20100;-82
2022/05/21 08:40:46;;;;;;;11.15;6.63;;;;;;;-148.88;77.38;75691.91;5037202;28;20119;-85
2022/05/21 08:43:40;;;;;;;14.90;5.78;;;;;;;-148.88;77.46;75693.94;5018122;28;20056;-84
2022/05/21 08:46:36;;;;;;;9.93;6.40;;;;;;;-148.88;75.76;75698.00;5017094;28;20428;-84
2022/05/21 08:49:08;;;;;;;14.93;6.85;;;;;;;-148.88;75.27;75675.66;5033257;28;20030;-84
2022/05/21 08:51:40;;;;;;;14.60;6.40;;;;;;;-148.88;75.42;75661.44;5032869;28;20032;-86
2022/05/21 08:54:24;;;;;;;11.15;5.90;;;;;;;-148.88;73.58;75639.09;5035188;28;20025;-86
2022/05/21 08:56:58;;;;;;;15.18;6.07;;;;;;;-148.88;73.69;75667.53;5033738;28;20029;-83
2022/05/21 08:59:38;;;;;;;13.32;5.50;;;;;;;-148.88;72.61;75635.03;5017857;28;20025;-85
2022/05/21 09:02:16;;;;;;;13.70;5.72;;;;;;;-148.88;72.65;75643.16;5033918;28;20031;-85
2022/05/21 09:04:42;;;;;;;9.40;5.30;;;;;;;-148.88;75.03;75616.75;5033765;28;20087;-83
2022/05/21 09:08:02;;;;;;;11.30;6.10;;;;;;;-148.88;73.67;75570.03;5037881;28;20049;-85
2022/05/21 09:11:11;;;;;;;11.25;6.55;;;;;;;-148.88;72.72;75594.44;4958583;28;20031;-84
2022/05/21 09:13:58;;;;;;;12.95;6.38;;;;;;;-148.88;74.05;75616.75;5037684;28;20026;-84
2022/05/21 09:19:38;;;;;;;11.73;6.53;;;;;;;-148.88;74.09;75667.53;5040514;28;20433;-85
2022/05/21 09:22:13;;;;;;;10.68;5.53;;;;;;;-148.88;74.48;75691.91;5035898;28;20080;-85
2022/05/21 09:24:58;;;;;;;12.75;6.00;;;;;;;-148.88;73.92;75691.91;5036183;28;20029;-83
2022/05/21 09:27:34;;;;;;;11.48;6.10;;;;;;;-148.88;75.30;75657.38;5037106;28;20049;-85
2022/05/21 09:30:34;;;;;;;11.98;6.75;;;;;;;-148.88;73.96;75633.00;5019716;28;20032;-85
2022/05/21 09:33:06;;;;;;;12.30;5.82;;;;;;;-148.88;74.14;75653.31;5037251;28;20041;-86
2022/05/21 09:36:02;;;;;;;14.25;6.22;;;;;;;-148.88;74.81;75647.22;5036775;28;20040;-87
2022/05/21 09:38:56;;;;;;;11.13;6.97;;;;;;;-148.88;75.52;75647.22;5037528;28;20505;-86
2022/05/21 09:41:23;;;;;;;;;;;;;;;-148.88;74.90;75663.47;5037842;28;20037;-87
2022/05/21 09:47:26;;;;;;;14.50;7.10;;;;;;;-148.88;74.04;75555.84;5038389;28;20116;-86
2022/05/21 09:50:20;;;;;;;16.02;7.72;;;;;;;-148.88;72.76;75549.75;5037399;28;20474;-86
2022/05/21 09:53:14;;;;;;;12.50;7.10;;;;;;;-148.88;74.03;75580.22;5035531;28;20426;-88
2022/05/21 09:56:01;;;;;;;16.00;7.68;;;;;;;-148.88;72.98;75531.47;5037162;28;20033;-88
2022/05/21 09:58:44;;;;;;;12.52;6.60;;;;;;;-148.88;70.83;75494.91;5037787;28;20025;-85
2022/05/21 10:01:36;;;;;;;17.20;6.80;;;;;;;-148.88;69.53;75476.63;5035840;28;20390;-84
2022/05/21 10:04:48;;;;;;;;;;;;;;;;;;;;;
2022/05/21 10:11:00;;;;;;;14.25;7.95;;;;;;;-148.88;76.28;75728.47;5038144;28;20043;-86
2022/05/21 10:13:47;;;;;;;13.85;7.97;;;;;;;-148.88;77.59;75728.47;5036943;28;20032;-87
2022/05/21 10:16:25;;;;;;;12.30;7.68;;;;;;;-148.88;75.85;75708.16;5037014;28;20044;-85
2022/05/21 10:19:17;;;;;;;14.07;7.72;;;;;;;-148.88;75.28;75630.97;5036366;28;20105;-88
2022/05/21 10:21:56;;;;;;;14.38;7.10;;;;;;;-148.88;70.91;75543.66;5036303;28;20029;-84
2022/05/21 10:25:04;;;;;;;10.07;6.43;;;;;;;-148.88;70.74;75490.84;5019043;28;20053;-84
2022/05/21 10:28:13;;;;;;;15.45;7.28;;;;;;;-148.88;67.24;75458.34;5012153;28;20516;-86
2022/05/21 10:31:20;;;;;;;13.23;6.70;;;;;;;-148.88;69.21;75517.25;5009890;28;20401;-83
2022/05/21 10:34:07;;;;;;;16.05;6.88;;;;;;;-148.88;68.72;75570.03;5019801;28;20474;-85
2022/05/21 10:37:31;;;;;;;11.45;6.85;;;;;;;-148.88;71.55;75570.03;5019202;28;20371;-85
2022/05/21 10:40:23;;;;;;;11.20;6.97;;;;;;;-148.88;71.16;75614.72;4955829;29;20031;-85
2022/05/21 10:42:56;;;;;;;10.82;6.60;;;;;;;-148.88;71.64;75594.44;5020784;28;20037;-85
2022/05/21 10:46:13;;;;;;;16.95;6.75;;;;;;;-148.88;70.79;75628.94;5023423;28;20022;-85
2022/05/21 10:49:28;;;;;;;14.40;6.50;;;;;;;-148.88;70.41;75618.78;5040556;28;20022;-84
2022/05/21 10:52:16;;;;;;;12.63;6.07;;;;;;;-148.88;69.66;75588.34;5040510;28;20029;-83
2022/05/21 10:55:11;;;;;;;13.20;5.70;;;;;;;-148.88;69.58;75626.91;5021886;28;20032;-83
2022/05/21 10:58:07;;;;;;;14.10;5.80;;;;;;;-148.88;71.00;75639.09;5039902;28;20427;-81
2022/05/21 11:00:43;;;;;;;16.05;7.13;;;;;;;-148.88;72.15;75643.16;5038219;28;20025;-85
2022/05/21 11:03:38;;;;;;;13.38;6.15;;;;;;;-148.88;71.68;75643.16;5038242;28;20083;-85
2022/05/21 11:06:24;;;;;;;12.95;6.70;;;;;;;-148.88;71.65;75645.19;5020192;28;20030;-85
2022/05/21 11:08:59;;;;;;;14.73;5.95;;;;;;;-148.88;69.75;75555.84;5038881;28;20033;-84
2022/05/21 11:11:56;;;;;;;11.77;6.20;;;;;;;-148.88;67.20;75566.00;5037748;28;20112;-84
2022/05/21 11:14:37;;;;;;;11.63;5.72;;;;;;;-148.88;68.14;75574.13;5018442;28;20022;-82
2022/05/21 11:17:21;;;;;;;11.35;5.70;;;;;;;-148.88;69.01;75622.84;5033170;28;20047;-84
2022/05/21 11:20:17;;;;;;;14.40;6.05;;;;;;;-148.88;69.44;75622.84;5034745;28;20029;-85
2022/05/21 11:23:01;;;;;;;10.55;5.43;;;;;;;-148.88;70.33;75588.34;5034067;28;20021;-86
2022/05/21 11:25:43;;;;;;;9.27;5.30;;;;;;;-148.88;68.97;75533.50;5035149;28;20605;-86
2022/05/21 11:28:40;;;;;;;11.13;4.60;;;;;;;-148.88;65.94;75505.06;5034138;28;20383;-85
2022/05/21 11:37:23;;;;;;;9.35;3.28;;;;;;;-148.88;60.81;75399.44;5036000;28;20033;-84
2022/05/21 11:40:03;;;;;;;8.85;3.38;;;;;;;-148.88;61.06;75431.94;5035049;28;20486;-84
2022/05/21 11:42:50;;;;;;;5.72;2.58;;;;;;;-148.88;59.17;75460.38;5036565;28;20105;-85
2022/05/21 11:45:26;;;;;;;7.38;2.67;;;;;;;-148.88;60.11;75480.69;5020988;28;20477;-84
2022/05/21 11:48:12;;;;;;;7.82;2.53;;;;;;;-148.88;62.39;75517.25;5054927;28;20045;-84
2022/05/21 11:51:22;;;;;;;8.07;2.78;;;;;;;-148.88;59.92;75551.78;5052552;28;20052;-84
2022/05/21 11:53:59;;;;;;;7.03;2.75;;;;;;;-148.88;61.86;75594.44;5039840;28;20097;-85
2022/05/21 11:57:05;;;;;;;8.25;3.22;;;;;;;-148.88;62.65;75588.34;5036718;28;20029;-82
2022/05/21 11:59:56;;;;;;;6.40;2.80;;;;;;;-148.88;63.43;75584.25;5039581;28;20056;-84
2022/05/21 12:02:55;;;;;;;10.05;3.30;;;;;;;-148.88;64.92;75586.31;5037899;28;20478;-85
2022/05/21 12:05:49;;;;;;;8.65;3.58;;;;;;;-148.88;65.47;75582.22;5028162;28;20049;-86
2022/05/21 12:08:20;;;;;;;;;;;;;;;-148.88;63.88;75582.22;5021939;28;20108;-86
2022/05/21 12:10:57;;;;;;;7.32;3.10;;;;;;;-148.88;63.73;75574.13;5037000;28;19937;-89
2022/05/21 12:13:35;;;;;;;7.97;2.70;;;;;;;-148.88;64.15;75574.13;5032759;28;20108;-87
2022/05/21 12:16:22;;;;;;;6.15;2.60;;;;;;;-148.88;64.38;75586.31;5033060;28;20116;-87
2022/05/21 12:19:00;;;;;;;5.45;2.35;;;;;;;-148.88;63.08;75598.47;5034431;28;20048;-84
2022/05/21 12:21:29;;;;;;;5.97;2.20;;;;;;;-148.88;61.39;75602.53;5018324;28;20474;-83
2022/05/21 12:24:46;;;;;;;7.05;2.10;;;;;;;-148.88;60.59;75614.72;5035495;28;20022;-84
2022/05/21 12:27:28;;;;;;;6.03;1.88;;;;;;;-148.88;61.89;75626.91;4978040;28;20034;-87
2022/05/21 12:30:16;;;;;;;6.75;2.03;;;;;;;-148.88;61.76;75614.72;4976305;28;20057;-84
2022/05/21 12:32:41;;;;;;;7.28;1.88;;;;;;;-148.88;62.12;75626.91;4961051;28;20034;-86
2022/05/21 12:35:23;;;;;;;8.07;2.28;;;;;;;-148.88;63.49;75606.59;4993435;28;20026;-86
2022/05/21 12:38:17;;;;;;;5.57;2.38;;;;;;;-148.88;65.69;75580.22;4983799;28;20171;-86
2022/05/21 12:41:11;;;;;;;9.40;3.83;;;;;;;-148.88;66.94;75566.00;5025418;28;20034;-86
2022/05/21 12:43:47;;;;;;;11.07;4.78;;;;;;;-148.88;67.53;75570.03;5033233;28;20057;-86
2022/05/21 12:46:45;;;;;;;10.65;4.93;;;;;;;-148.88;68.48;75586.31;5033667;28;20032;-85